South End, Vermont
Current Conditions -  °F | °C
As of 12:55 PM on Friday 24 Oct 2014 (Local Time) from KRUT Reporting Station
Overcast Overcast  
Wind Chill: 36°   Ceiling: 800
Heat Index: 43°   Visibility: 9mi
Dew Point: 39°   Wind: 13mph
Humidity: 87%   Direction: 330°NNW
Pressure: 29.8"   Gusts: 22mph
Location:  43.3492°N, 72.9643°W
Report Text: KRUT 241655Z 33011G19KT 9SM OVC008 06/04 A2980 RMK AO1
Loading
Personal Weather Stations






























Interactive Weather Map
Tropical Storm Tracking
New forecast layout! Learn more

10-Day Weather Forecast

Advertisements
Track Severe Weather on mobile